createdAt,value
2017-08-29T00:00:39.850Z,57.4
2017-08-29T00:01:49.453Z,57.59
2017-08-29T00:02:58.133Z,57.69
2017-08-29T00:04:06.788Z,57.69
2017-08-29T00:05:15.787Z,57.79
2017-08-29T00:06:24.603Z,57.88
2017-08-29T00:07:33.573Z,57.69
2017-08-29T00:08:42.235Z,57.5
2017-08-29T00:09:51.852Z,57.88
2017-08-29T00:11:00.526Z,57.98
2017-08-29T00:12:09.926Z,57.79
2017-08-29T00:13:19.221Z,58.27
2017-08-29T00:14:28.228Z,58.27
2017-08-29T00:15:37.525Z,58.07
2017-08-29T00:16:46.541Z,58.04
2017-08-29T00:17:56.449Z,58.27
2017-08-29T00:19:05.428Z,58.17
2017-08-29T00:20:14.413Z,57.88
2017-08-29T00:21:23.065Z,58.07
2017-08-29T00:22:31.730Z,57.98
2017-08-29T00:23:40.714Z,57.69
2017-08-29T00:24:49.994Z,57.95
2017-08-29T00:25:59.265Z,58.04
2017-08-29T00:27:08.237Z,58.44
2017-08-29T00:28:17.223Z,58.14
2017-08-29T00:29:26.653Z,58.82
2017-08-29T00:30:35.630Z,58.72
2017-08-29T00:31:44.605Z,58.63
2017-08-29T00:32:53.889Z,58.63
2017-08-29T00:34:03.188Z,58.72
2017-08-29T00:35:12.159Z,58.34
2017-08-29T00:36:21.441Z,58.53
2017-08-29T00:37:30.442Z,58.63
2017-08-29T00:38:39.112Z,58.63
2017-08-29T00:39:48.727Z,58.24
2017-08-29T00:40:57.703Z,58.44
2017-08-29T00:42:06.373Z,58.44
2017-08-29T00:43:15.026Z,58.34
2017-08-29T00:44:23.994Z,58.53
2017-08-29T00:45:33.313Z,58.44
2017-08-29T00:46:41.998Z,58.63
2017-08-29T00:47:51.285Z,58.53
2017-08-29T00:49:00.626Z,58.53
2017-08-29T00:50:09.295Z,58.53
2017-08-29T00:51:18.257Z,58.44
2017-08-29T00:52:26.962Z,58.44
2017-08-29T00:53:35.983Z,58.34
2017-08-29T00:54:45.275Z,58.82
2017-08-29T00:55:54.250Z,58.92
2017-08-29T00:57:02.936Z,58.82
2017-08-29T00:58:11.731Z,58.34
2017-08-29T00:59:20.718Z,58.92
2017-08-29T01:00:30.329Z,58.82
2017-08-29T01:01:39.300Z,58.63
2017-08-29T01:02:48.592Z,58.92
2017-08-29T01:03:57.708Z,58.92
2017-08-29T01:05:07.010Z,59.01
2017-08-29T01:06:15.989Z,58.92
2017-08-29T01:07:25.301Z,59.11
2017-08-29T01:08:33.963Z,58.92
2017-08-29T01:09:43.083Z,58.92
2017-08-29T01:10:52.046Z,58.82
2017-08-29T01:12:01.351Z,58.92
2017-08-29T01:13:10.641Z,58.92
2017-08-29T01:14:19.931Z,59.01
2017-08-29T01:15:29.372Z,58.63
2017-08-29T01:16:38.974Z,58.82
2017-08-29T01:17:48.266Z,58.72
2017-08-29T01:18:57.557Z,58.7
2017-08-29T01:20:06.528Z,58.63
2017-08-29T01:21:15.334Z,58.63
2017-08-29T01:22:23.982Z,58.72
2017-08-29T01:23:33.276Z,58.82
2017-08-29T01:24:42.578Z,58.63
2017-08-29T01:25:51.224Z,58.6
2017-08-29T01:27:00.673Z,58.82
2017-08-29T01:28:09.959Z,58.89
2017-08-29T01:29:19.563Z,58.6
2017-08-29T01:30:28.534Z,58.7
2017-08-29T01:31:37.530Z,58.72
2017-08-29T01:32:46.567Z,58.92
2017-08-29T01:33:55.898Z,58.89
2017-08-29T01:35:04.853Z,58.8
2017-08-29T01:36:14.136Z,58.8
2017-08-29T01:37:22.802Z,58.82
2017-08-29T01:38:31.778Z,58.6
2017-08-29T01:39:41.074Z,58.92
2017-08-29T01:40:50.045Z,58.6
2017-08-29T01:41:59.024Z,58.8
2017-08-29T01:43:07.687Z,58.82
2017-08-29T01:44:16.669Z,58.82
2017-08-29T01:45:25.702Z,58.6
2017-08-29T01:46:34.671Z,58.63
2017-08-29T01:47:44.275Z,58.7
2017-08-29T01:48:53.237Z,58.7
2017-08-29T01:50:02.041Z,58.6
2017-08-29T01:51:11.327Z,58.7
2017-08-29T01:52:20.305Z,58.98
2017-08-29T01:53:28.957Z,58.92
2017-08-29T01:54:38.274Z,58.98
2017-08-29T01:55:47.425Z,59.11
2017-08-29T01:56:56.707Z,59.08
2017-08-29T01:58:05.693Z,59.28
2017-08-29T01:59:14.680Z,58.98
2017-08-29T02:00:23.354Z,58.8
2017-08-29T02:01:32.305Z,58.89
2017-08-29T02:02:40.960Z,59.18
2017-08-29T02:03:49.622Z,59.56
2017-08-29T02:04:58.667Z,59.56
2017-08-29T02:06:07.658Z,59.66
2017-08-29T02:07:16.988Z,59.56
2017-08-29T02:08:25.655Z,59.56
2017-08-29T02:09:34.634Z,59.38
2017-08-29T02:10:43.607Z,59.56
2017-08-29T02:11:52.271Z,59.18
2017-08-29T02:13:01.557Z,59.38
2017-08-29T02:14:10.525Z,59.66
2017-08-29T02:15:19.498Z,59.56
2017-08-29T02:16:28.801Z,59.66
2017-08-29T02:17:37.780Z,59.56
2017-08-29T02:18:46.444Z,59.56
2017-08-29T02:19:56.053Z,59.56
2017-08-29T02:21:05.359Z,59.56
2017-08-29T02:22:14.345Z,59.28
2017-08-29T02:23:23.321Z,59.56
2017-08-29T02:24:32.770Z,59.56
2017-08-29T02:25:41.444Z,59.56
2017-08-29T02:26:50.743Z,59.56
2017-08-29T02:28:00.040Z,59.38
2017-08-29T02:29:09.010Z,59.53
2017-08-29T02:30:18.672Z,59.76
2017-08-29T02:31:27.657Z,59.44
2017-08-29T02:32:36.635Z,59.56
2017-08-29T02:33:45.598Z,59.38
2017-08-29T02:34:54.250Z,59.47
2017-08-29T02:36:03.065Z,59.47
2017-08-29T02:37:12.684Z,59.38
2017-08-29T02:38:21.990Z,59.38
2017-08-29T02:39:30.659Z,59.38
2017-08-29T02:40:39.668Z,59.63
2017-08-29T02:41:48.949Z,59.56
2017-08-29T02:42:57.917Z,59.56
2017-08-29T02:44:07.212Z,59.47
2017-08-29T02:45:15.878Z,59.47
2017-08-29T02:46:24.551Z,59.08
2017-08-29T02:47:33.575Z,59.25
2017-08-29T02:48:42.870Z,59.25
2017-08-29T02:49:52.162Z,59.34
2017-08-29T02:51:01.455Z,59.53
2017-08-29T02:52:10.441Z,59.53
2017-08-29T02:53:19.417Z,59.44
2017-08-29T02:54:28.074Z,59.83
2017-08-29T02:55:37.069Z,59.83
2017-08-29T02:56:46.045Z,59.44
2017-08-29T02:57:54.724Z,59.63
2017-08-29T02:59:03.684Z,60.02
2017-08-29T03:00:12.678Z,60.02
2017-08-29T03:01:21.641Z,59.92
2017-08-29T03:02:30.607Z,60.11
2017-08-29T03:03:39.598Z,59.92
2017-08-29T03:04:48.673Z,60.11
2017-08-29T03:05:57.636Z,60.11
2017-08-29T03:07:06.281Z,60.02
2017-08-29T03:08:15.245Z,59.83
2017-08-29T03:09:24.225Z,60.02
2017-08-29T03:10:33.346Z,59.92
2017-08-29T03:11:42.629Z,59.53
2017-08-29T03:12:51.307Z,59.44
2017-08-29T03:14:00.289Z,59.92
2017-08-29T03:15:09.289Z,59.44
2017-08-29T03:16:17.961Z,59.53
2017-08-29T03:17:27.556Z,60.02
2017-08-29T03:18:36.861Z,60.21
2017-08-29T03:19:45.840Z,60.02
2017-08-29T03:20:54.515Z,60.11
2017-08-29T03:22:03.640Z,60.11
2017-08-29T03:23:12.933Z,60.11
2017-08-29T03:24:21.910Z,60.11
2017-08-29T03:25:31.205Z,60.11
2017-08-29T03:26:39.864Z,59.92
2017-08-29T03:27:49.151Z,59.92
2017-08-29T03:28:58.433Z,59.92
2017-08-29T03:30:07.730Z,59.83
2017-08-29T03:31:16.702Z,60.02
2017-08-29T03:32:25.984Z,60.11
2017-08-29T03:33:35.048Z,59.25
2017-08-29T03:34:44.337Z,59.53
2017-08-29T03:35:53.618Z,59.83
2017-08-29T03:37:02.588Z,59.44
2017-08-29T03:38:12.187Z,60.02
2017-08-29T03:39:21.160Z,60.02
2017-08-29T03:40:30.131Z,60.02
2017-08-29T03:41:39.419Z,59.92
2017-08-29T03:42:48.152Z,59.92
2017-08-29T03:43:56.798Z,60.02
2017-08-29T03:45:06.110Z,59.53
2017-08-29T03:46:14.777Z,59.63
2017-08-29T03:47:23.750Z,59.53
2017-08-29T03:48:33.046Z,59.63
2017-08-29T03:49:42.401Z,59.63
2017-08-29T03:50:51.376Z,59.53
2017-08-29T03:52:00.028Z,59.53
2017-08-29T03:53:09.304Z,59.44
2017-08-29T03:54:17.960Z,59.44
2017-08-29T03:55:26.629Z,59.44
2017-08-29T03:56:35.956Z,59.53
2017-08-29T03:57:44.929Z,59.53
2017-08-29T03:58:54.222Z,59.44
2017-08-29T04:00:02.868Z,59.25
2017-08-29T04:01:12.146Z,59.44
2017-08-29T04:02:21.894Z,59.73
2017-08-29T04:03:31.508Z,59.83
2017-08-29T04:04:40.176Z,59.44
2017-08-29T04:05:48.833Z,59.44
2017-08-29T04:06:57.819Z,59.63
2017-08-29T04:08:06.844Z,59.44
2017-08-29T04:09:15.825Z,60.02
2017-08-29T04:10:25.110Z,59.92
2017-08-29T04:11:34.403Z,59.92
2017-08-29T04:12:43.701Z,60.02
2017-08-29T04:13:52.827Z,60.02
2017-08-29T04:15:02.421Z,59.92
2017-08-29T04:16:11.087Z,59.83
2017-08-29T04:17:19.739Z,60.02
2017-08-29T04:18:28.713Z,60.02
2017-08-29T04:19:37.836Z,59.53
2017-08-29T04:20:47.125Z,59.44
2017-08-29T04:21:55.781Z,59.44
2017-08-29T04:23:04.742Z,59.53
2017-08-29T04:24:13.717Z,59.92
2017-08-29T04:25:22.687Z,60.02
2017-08-29T04:26:31.665Z,59.92
2017-08-29T04:27:40.651Z,60.02
2017-08-29T04:28:50.273Z,60.02
2017-08-29T04:29:59.243Z,60.02
2017-08-29T04:31:08.627Z,60.02
2017-08-29T04:32:17.591Z,60.02
2017-08-29T04:33:26.876Z,60.02
2017-08-29T04:34:35.858Z,60.02
2017-08-29T04:35:44.847Z,59.92
2017-08-29T04:36:53.822Z,60.02
2017-08-29T04:38:03.444Z,60.02
2017-08-29T04:39:12.423Z,60.11
2017-08-29T04:40:21.152Z,59.92
2017-08-29T04:41:30.145Z,60.02
2017-08-29T04:42:39.262Z,60.02
2017-08-29T04:43:48.241Z,59.92
2017-08-29T04:44:57.219Z,60.11
2017-08-29T04:46:05.888Z,59.92
2017-08-29T04:47:14.881Z,60.31
2017-08-29T04:48:23.655Z,59.92
2017-08-29T04:49:32.634Z,59.92
2017-08-29T04:50:42.242Z,60.21
2017-08-29T04:51:51.886Z,60.11
2017-08-29T04:53:01.485Z,60.02
2017-08-29T04:54:10.778Z,60.11
2017-08-29T04:55:19.440Z,60.11
2017-08-29T04:56:28.098Z,59.92
2017-08-29T04:57:37.066Z,59.92
2017-08-29T04:58:45.745Z,60.31
2017-08-29T04:59:54.719Z,59.63
2017-08-29T05:01:03.387Z,59.34
2017-08-29T05:02:12.368Z,59.15
2017-08-29T05:03:21.361Z,59.34
2017-08-29T05:04:30.331Z,59.63
2017-08-29T05:05:39.295Z,59.53
2017-08-29T05:06:48.264Z,59.38
2017-08-29T05:07:57.275Z,58.89
2017-08-29T05:09:06.244Z,58.89
2017-08-29T05:10:14.908Z,58.89
2017-08-29T05:11:24.817Z,58.5
2017-08-29T05:12:34.429Z,58.8
2017-08-29T05:13:43.076Z,58.89
2017-08-29T05:14:51.724Z,58.4
2017-08-29T05:16:00.686Z,58.4
2017-08-29T05:17:09.973Z,58.5
2017-08-29T05:18:18.944Z,58.24
2017-08-29T05:19:27.927Z,58.53
2017-08-29T05:20:37.225Z,58.24
2017-08-29T05:21:45.878Z,57.66
2017-08-29T05:22:55.361Z,57.66
2017-08-29T05:24:04.339Z,58.14
2017-08-29T05:25:12.985Z,58.24
2017-08-29T05:26:22.278Z,57.95
2017-08-29T05:27:30.949Z,57.79
2017-08-29T05:28:39.666Z,57.5
2017-08-29T05:29:48.342Z,57.76
2017-08-29T05:30:57.700Z,57.5
2017-08-29T05:32:06.670Z,57.5
2017-08-29T05:33:15.654Z,57.3
2017-08-29T05:34:24.718Z,57.4
2017-08-29T05:35:34.003Z,57.11
2017-08-29T05:36:42.661Z,57.11
2017-08-29T05:37:51.955Z,57.4
2017-08-29T05:39:00.618Z,57.3
2017-08-29T05:40:09.715Z,57.14
2017-08-29T05:41:19.011Z,57.14
2017-08-29T05:42:27.687Z,56.94
2017-08-29T05:43:36.658Z,56.75
2017-08-29T05:44:45.652Z,56.36
2017-08-29T05:45:55.011Z,56.85
2017-08-29T05:47:04.328Z,56.65
2017-08-29T05:48:13.325Z,56.26
2017-08-29T05:49:22.318Z,56.07
2017-08-29T05:50:31.283Z,56.39
2017-08-29T05:51:40.755Z,56
2017-08-29T05:52:50.066Z,55.9
2017-08-29T05:53:59.049Z,55.81
2017-08-29T05:55:08.028Z,55.42
2017-08-29T05:56:17.018Z,55.71
2017-08-29T05:57:26.016Z,55.62
2017-08-29T05:58:35.022Z,55.64
2017-08-29T05:59:44.004Z,55.52
2017-08-29T06:00:52.986Z,55.42
2017-08-29T06:02:01.965Z,56.1
2017-08-29T06:03:11.017Z,55.9
2017-08-29T06:04:20.320Z,56.1
2017-08-29T06:05:29.935Z,56.1
2017-08-29T06:06:39.258Z,56.39
2017-08-29T06:07:48.236Z,56.29
2017-08-29T06:08:57.551Z,56.2
2017-08-29T06:10:06.521Z,56.16
2017-08-29T06:11:15.815Z,56.68
2017-08-29T06:12:25.737Z,56.87
2017-08-29T06:13:34.740Z,56.77
2017-08-29T06:14:43.713Z,56.65
2017-08-29T06:15:52.694Z,56.59
2017-08-29T06:17:01.975Z,56.56
2017-08-29T06:18:10.941Z,56.75
2017-08-29T06:19:19.925Z,56.65
2017-08-29T06:20:28.582Z,56.68
2017-08-29T06:21:37.243Z,56.77
2017-08-29T06:22:45.929Z,56.97
2017-08-29T06:23:54.668Z,56.77
2017-08-29T06:25:03.975Z,57.07
2017-08-29T06:26:12.949Z,56.39
2017-08-29T06:27:21.955Z,56.2
2017-08-29T06:28:30.934Z,56.39
2017-08-29T06:29:39.921Z,56.39
2017-08-29T06:30:49.257Z,56.29
2017-08-29T06:31:58.345Z,56.49
2017-08-29T06:33:07.645Z,56.49
2017-08-29T06:34:16.313Z,56.49
2017-08-29T06:35:25.296Z,56.2
2017-08-29T06:36:33.972Z,56.1
2017-08-29T06:37:43.282Z,56.1
2017-08-29T06:38:52.278Z,56.1
2017-08-29T06:40:00.952Z,56.39
2017-08-29T06:41:09.941Z,56.29
2017-08-29T06:42:18.924Z,56.32
2017-08-29T06:43:28.535Z,56.32
2017-08-29T06:44:37.503Z,56.32
2017-08-29T06:45:46.482Z,56.23
2017-08-29T06:46:55.777Z,56.23
2017-08-29T06:48:04.762Z,56.23
2017-08-29T06:49:13.740Z,56.13
2017-08-29T06:50:23.379Z,56.13
2017-08-29T06:51:32.677Z,56.32
2017-08-29T06:52:41.370Z,56.51
2017-08-29T06:53:50.037Z,56.13
2017-08-29T06:54:59.940Z,56.71
2017-08-29T06:56:08.918Z,56.41
2017-08-29T06:57:17.625Z,56.13
2017-08-29T06:58:26.914Z,56.41
2017-08-29T06:59:36.220Z,56.41
2017-08-29T07:00:44.885Z,56.23
2017-08-29T07:01:54.222Z,56.51
2017-08-29T07:03:03.623Z,56.32
2017-08-29T07:04:12.289Z,56.32
2017-08-29T07:05:21.268Z,56.32
2017-08-29T07:06:30.305Z,56.23
2017-08-29T07:07:39.279Z,56.32
2017-08-29T07:08:48.254Z,56.51
2017-08-29T07:09:57.232Z,56.41
2017-08-29T07:11:06.861Z,56.23
2017-08-29T07:12:16.223Z,56.23
2017-08-29T07:13:25.241Z,56.32
2017-08-29T07:14:34.235Z,56.51
2017-08-29T07:15:42.897Z,56.41
2017-08-29T07:16:52.514Z,56.41
2017-08-29T07:18:02.119Z,56.23
2017-08-29T07:19:11.758Z,56.41
2017-08-29T07:20:21.061Z,56.51
2017-08-29T07:21:30.049Z,56.23
2017-08-29T07:22:39.036Z,56.13
2017-08-29T07:23:48.181Z,56.13
2017-08-29T07:24:57.814Z,56.32
2017-08-29T07:26:07.130Z,56.41
2017-08-29T07:27:16.431Z,56.32
2017-08-29T07:28:25.430Z,56.23
2017-08-29T07:29:34.723Z,56.23
2017-08-29T07:31:09.407Z,56.23
2017-08-29T07:32:18.410Z,56.41
2017-08-29T07:33:27.400Z,56.32
2017-08-29T07:34:36.719Z,56.23
2017-08-29T07:35:46.335Z,56.32
2017-08-29T07:36:55.370Z,56.32
2017-08-29T07:38:04.037Z,56.51
2017-08-29T07:39:13.042Z,56.51
2017-08-29T07:40:21.741Z,56.32
2017-08-29T07:41:30.742Z,56.41
2017-08-29T07:42:40.389Z,56.23
2017-08-29T07:43:50.064Z,56.03
2017-08-29T07:44:59.041Z,55.83
2017-08-29T07:46:08.364Z,56.05
2017-08-29T07:47:17.048Z,55.28
2017-08-29T07:48:26.341Z,54.9
2017-08-29T07:49:35.046Z,53.59
2017-08-29T07:50:44.073Z,53.03
2017-08-29T07:51:53.704Z,52.06
2017-08-29T07:53:02.685Z,51.79
2017-08-29T07:54:12.316Z,51.43
2017-08-29T07:55:21.314Z,51.33
2017-08-29T07:56:30.031Z,52.31
2017-08-29T07:57:38.697Z,51.82
2017-08-29T07:58:47.995Z,52.57
2017-08-29T07:59:57.003Z,52.76
2017-08-29T08:01:05.703Z,53.25
2017-08-29T08:02:14.387Z,53.61
2017-08-29T08:03:23.684Z,53.61
2017-08-29T08:04:32.671Z,53.91
2017-08-29T08:05:41.655Z,53.69
2017-08-29T08:06:50.971Z,54.49
2017-08-29T08:08:00.008Z,54.29
2017-08-29T08:09:09.029Z,54.56
2017-08-29T08:10:17.997Z,54.56
2017-08-29T08:11:27.613Z,54.17
2017-08-29T08:12:36.638Z,54.66
2017-08-29T08:13:45.317Z,54.66
2017-08-29T08:14:54.628Z,55.04
2017-08-29T08:16:04.276Z,55.21
2017-08-29T08:17:13.257Z,54.92
2017-08-29T08:18:22.554Z,55.11
2017-08-29T08:19:31.880Z,55.02
2017-08-29T08:20:41.220Z,55.41
2017-08-29T08:21:50.518Z,55.11
2017-08-29T08:22:59.509Z,55.69
2017-08-29T08:24:08.546Z,55.69
2017-08-29T08:25:17.861Z,55.89
2017-08-29T08:26:27.159Z,55.5
2017-08-29T08:27:37.094Z,55.89
2017-08-29T08:28:46.394Z,55.69
2017-08-29T08:29:56.035Z,56.09
2017-08-29T08:31:05.017Z,55.99
2017-08-29T08:32:14.010Z,56.05
2017-08-29T08:33:22.685Z,56.15
2017-08-29T08:34:32.334Z,56.05
2017-08-29T08:35:41.654Z,55.87
2017-08-29T08:36:51.013Z,56.15
2017-08-29T08:37:59.692Z,56.15
2017-08-29T08:39:09.328Z,56.25
2017-08-29T08:40:18.018Z,56.54
2017-08-29T08:41:27.307Z,56.25
2017-08-29T08:42:36.917Z,56.35
2017-08-29T08:43:46.542Z,56.35
2017-08-29T08:44:55.582Z,56.25
2017-08-29T08:46:04.601Z,56.35
2017-08-29T08:47:13.914Z,56.05
2017-08-29T08:48:22.908Z,56.05
2017-08-29T08:49:31.982Z,56.05
2017-08-29T08:50:41.015Z,56.54
2017-08-29T08:51:50.028Z,56.25
2017-08-29T08:52:58.748Z,56.54
2017-08-29T08:54:07.749Z,56.45
2017-08-29T08:55:17.074Z,56.35
2017-08-29T08:56:26.380Z,56.25
2017-08-29T08:57:35.061Z,56.35
2017-08-29T08:58:44.071Z,56.25
2017-08-29T08:59:53.363Z,56.45
2017-08-29T09:01:02.363Z,56.25
2017-08-29T09:02:11.026Z,56.35
2017-08-29T09:03:20.325Z,56.45
2017-08-29T09:04:29.324Z,56.54
2017-08-29T09:05:38.977Z,56.35
2017-08-29T09:06:47.972Z,56.35
2017-08-29T09:07:57.604Z,56.45
2017-08-29T09:09:06.587Z,56.15
2017-08-29T09:10:15.253Z,56.35
2017-08-29T09:11:24.253Z,56.45
2017-08-29T09:12:33.574Z,56.25
2017-08-29T09:13:43.228Z,56.25
2017-08-29T09:14:51.909Z,56.25
2017-08-29T09:16:00.589Z,56.05
2017-08-29T09:17:09.256Z,56.45
2017-08-29T09:18:18.607Z,56.35
2017-08-29T09:19:27.907Z,56.64
2017-08-29T09:20:36.618Z,56.05
2017-08-29T09:21:45.327Z,56.15
2017-08-29T09:22:54.940Z,56.05
2017-08-29T09:24:03.622Z,56.64
2017-08-29T09:25:12.613Z,56.54
2017-08-29T09:26:21.280Z,56.54
2017-08-29T09:27:30.901Z,56.35
2017-08-29T09:28:39.893Z,56.83
2017-08-29T09:29:49.842Z,56.54
2017-08-29T09:30:59.473Z,56.45
2017-08-29T09:32:08.513Z,56.35
2017-08-29T09:33:17.182Z,56.32
2017-08-29T09:34:26.492Z,56.45
2017-08-29T09:35:35.480Z,56.45
2017-08-29T09:36:44.542Z,56.93
2017-08-29T09:37:53.619Z,57.22
2017-08-29T09:39:03.238Z,56.35
2017-08-29T09:40:11.898Z,57
2017-08-29T09:41:20.889Z,57.03
2017-08-29T09:42:29.548Z,56.64
2017-08-29T09:43:38.866Z,57.03
2017-08-29T09:44:48.161Z,56.61
2017-08-29T09:45:57.457Z,57.09
2017-08-29T09:47:06.125Z,57.03
2017-08-29T09:48:15.113Z,57.09
2017-08-29T09:49:24.101Z,57.12
2017-08-29T09:50:33.402Z,56.61
2017-08-29T09:51:42.803Z,57.12
2017-08-29T09:52:52.106Z,56.74
2017-08-29T09:54:01.093Z,56.74
2017-08-29T09:55:09.765Z,56.61
2017-08-29T09:56:18.757Z,56.81
2017-08-29T09:57:27.432Z,57.09
2017-08-29T09:58:36.262Z,56.83
2017-08-29T09:59:45.254Z,56.74
2017-08-29T10:00:54.620Z,56.71
2017-08-29T10:02:03.649Z,56.83
2017-08-29T10:03:12.684Z,56.81
2017-08-29T10:04:21.669Z,56.83
2017-08-29T10:05:30.667Z,56.83
2017-08-29T10:06:39.684Z,56.71
2017-08-29T10:07:49.330Z,56.93
2017-08-29T10:08:58.650Z,56.81
2017-08-29T10:10:07.416Z,56.81
2017-08-29T10:11:17.054Z,56.9
2017-08-29T10:12:26.682Z,56.83
2017-08-29T10:13:35.698Z,56.74
2017-08-29T10:14:44.691Z,56.93
2017-08-29T10:15:53.698Z,56.74
2017-08-29T10:17:03.010Z,56.9
2017-08-29T10:18:12.314Z,56.9
2017-08-29T10:19:21.610Z,56.93
2017-08-29T10:20:30.926Z,56.9
2017-08-29T10:21:39.907Z,56.9
2017-08-29T10:22:49.208Z,56.9
2017-08-29T10:23:58.833Z,56.9
2017-08-29T10:25:08.459Z,56.93
2017-08-29T10:26:17.770Z,56.93
2017-08-29T10:27:26.760Z,56.83
2017-08-29T10:28:36.107Z,57
2017-08-29T10:29:45.084Z,56.9
2017-08-29T10:30:54.748Z,56.9
2017-08-29T10:32:03.735Z,56.9
2017-08-29T10:33:13.080Z,56.9
2017-08-29T10:34:22.712Z,56.9
2017-08-29T10:35:31.754Z,57
2017-08-29T10:36:41.057Z,57
2017-08-29T10:37:50.053Z,57
2017-08-29T10:38:59.371Z,56.81
2017-08-29T10:40:08.111Z,56.9
2017-08-29T10:41:17.099Z,56.9
2017-08-29T10:42:26.107Z,56.9
2017-08-29T10:43:34.785Z,56.9
2017-08-29T10:44:43.481Z,56.9
2017-08-29T10:45:52.502Z,56.9
2017-08-29T10:47:01.488Z,56.9
2017-08-29T10:48:10.230Z,56.81
2017-08-29T10:49:18.902Z,57
2017-08-29T10:50:27.919Z,56.81
2017-08-29T10:51:37.226Z,56.9
2017-08-29T10:52:46.220Z,57
2017-08-29T10:53:55.212Z,56.9
2017-08-29T10:55:04.201Z,57
2017-08-29T10:56:13.550Z,56.9
2017-08-29T10:57:22.211Z,56.9
2017-08-29T10:58:31.270Z,56.81
2017-08-29T10:59:40.885Z,57.03
2017-08-29T11:00:49.557Z,56.9
2017-08-29T11:01:58.548Z,56.9
2017-08-29T11:03:07.213Z,56.9
2017-08-29T11:04:15.881Z,56.71
2017-08-29T11:05:25.188Z,56.9
2017-08-29T11:06:34.515Z,56.9
2017-08-29T11:07:43.823Z,56.9
2017-08-29T11:08:52.493Z,56.71
2017-08-29T11:10:02.452Z,56.81
2017-08-29T11:11:11.120Z,56.61
2017-08-29T11:12:20.107Z,56.9
2017-08-29T11:13:29.753Z,56.71
2017-08-29T11:14:39.376Z,56.74
2017-08-29T11:15:48.412Z,56.81
2017-08-29T11:16:57.426Z,56.81
2017-08-29T11:18:06.771Z,56.61
2017-08-29T11:19:16.115Z,56.71
2017-08-29T11:20:24.802Z,56.71
2017-08-29T11:21:34.130Z,56.61
2017-08-29T11:22:43.119Z,56.71
2017-08-29T11:23:53.067Z,56.71
2017-08-29T11:25:02.047Z,57
2017-08-29T11:26:11.679Z,56.64
2017-08-29T11:27:20.999Z,57.09
2017-08-29T11:28:29.681Z,56.32
2017-08-29T11:29:39.002Z,56.32
2017-08-29T11:30:47.681Z,57.12
2017-08-29T11:31:57.051Z,56.45
2017-08-29T11:33:06.062Z,56.54
2017-08-29T11:34:15.384Z,56.32
2017-08-29T11:35:24.414Z,57.22
2017-08-29T11:36:33.444Z,57.09
2017-08-29T11:37:42.778Z,56.51
2017-08-29T11:38:51.452Z,56.41
2017-08-29T11:40:00.436Z,56.45
2017-08-29T11:41:10.068Z,56.54
2017-08-29T11:42:19.402Z,56.54
2017-08-29T11:43:28.093Z,56.45
2017-08-29T11:44:37.437Z,56.54
2017-08-29T11:45:46.771Z,56.35
2017-08-29T11:46:56.121Z,56.54
2017-08-29T11:48:05.455Z,56.35
2017-08-29T11:49:14.432Z,56.45
2017-08-29T11:50:23.437Z,56.32
2017-08-29T11:51:32.438Z,56.45
2017-08-29T11:52:41.426Z,56.35
2017-08-29T11:53:50.737Z,56.13
2017-08-29T11:54:59.425Z,56.35
2017-08-29T11:56:08.443Z,56.32
2017-08-29T11:57:17.744Z,56.54
2017-08-29T11:58:27.381Z,56.35
2017-08-29T11:59:36.373Z,56.45
2017-08-29T12:00:45.394Z,56.13
2017-08-29T12:01:54.407Z,56.15
2017-08-29T12:03:03.084Z,56.25
2017-08-29T12:04:11.754Z,56.35
2017-08-29T12:05:20.757Z,56.15
2017-08-29T12:06:29.732Z,56.32
2017-08-29T12:07:38.728Z,56.13
2017-08-29T12:08:48.376Z,56.35
2017-08-29T12:09:58.317Z,56.54
2017-08-29T12:11:07.310Z,56.35
2017-08-29T12:12:16.288Z,56.45
2017-08-29T12:13:25.285Z,56.45
2017-08-29T12:14:34.920Z,56.45
2017-08-29T12:15:43.895Z,56.35
2017-08-29T12:16:52.887Z,56.35
2017-08-29T12:18:01.912Z,56.54
2017-08-29T12:19:11.538Z,56.45
2017-08-29T12:20:21.164Z,56.54
2017-08-29T12:21:30.184Z,56.45
2017-08-29T12:22:38.868Z,56.35
2017-08-29T12:23:48.810Z,56.45
2017-08-29T12:24:57.790Z,56.35
2017-08-29T12:26:07.415Z,56.35
2017-08-29T12:27:16.391Z,56.35
2017-08-29T12:28:25.389Z,56.25
2017-08-29T12:29:34.681Z,56.64
2017-08-29T12:30:43.696Z,56.25
2017-08-29T12:31:53.321Z,56.45
2017-08-29T12:33:01.993Z,56.45
2017-08-29T12:34:11.025Z,56.64
2017-08-29T12:35:20.030Z,56.54
2017-08-29T12:36:28.696Z,56.45
2017-08-29T12:37:37.371Z,56.25
2017-08-29T12:38:46.078Z,56.25
2017-08-29T12:39:55.366Z,56.35
2017-08-29T12:41:04.344Z,56.45
2017-08-29T12:42:13.343Z,56.25
2017-08-29T12:43:22.647Z,56.45
2017-08-29T12:44:31.623Z,56.54
2017-08-29T12:45:40.314Z,56.15
2017-08-29T12:46:49.311Z,56.54
2017-08-29T12:47:58.611Z,56.15
2017-08-29T12:49:07.594Z,56.45
2017-08-29T12:50:16.921Z,56.64
2017-08-29T12:51:26.231Z,56.45
2017-08-29T12:52:34.895Z,56.74
2017-08-29T12:53:43.584Z,56.25
2017-08-29T12:54:52.251Z,56.45
2017-08-29T12:56:01.241Z,56.74
2017-08-29T12:57:10.549Z,56.15
2017-08-29T12:58:19.839Z,56.05
2017-08-29T12:59:28.509Z,56.15
2017-08-29T13:00:37.541Z,56.15
2017-08-29T13:01:46.521Z,56.35
2017-08-29T13:02:55.516Z,56.45
2017-08-29T13:04:04.185Z,56.45
2017-08-29T13:05:12.857Z,56.25
2017-08-29T13:06:22.489Z,56.54
2017-08-29T13:07:32.121Z,56.25
2017-08-29T13:08:40.821Z,56.25
2017-08-29T13:09:49.829Z,56.25
2017-08-29T13:10:58.518Z,56.45
2017-08-29T13:12:07.494Z,56.35
2017-08-29T13:13:16.207Z,56.25
2017-08-29T13:14:24.889Z,56.15
2017-08-29T13:15:33.884Z,56.15
2017-08-29T13:16:42.567Z,56.45
2017-08-29T13:17:51.864Z,56.35
2017-08-29T13:19:00.550Z,56.25
2017-08-29T13:20:09.854Z,56.25
2017-08-29T13:21:18.939Z,56.25
2017-08-29T13:22:27.923Z,56.35
2017-08-29T13:23:36.932Z,56.25
2017-08-29T13:24:46.615Z,56.25
2017-08-29T13:25:55.930Z,56.35
2017-08-29T13:27:04.702Z,56.45
2017-08-29T13:28:13.701Z,56.25
2017-08-29T13:29:22.729Z,56.25
2017-08-29T13:30:32.030Z,56.64
2017-08-29T13:31:41.041Z,56.25
2017-08-29T13:32:50.126Z,56.64
2017-08-29T13:33:59.844Z,56.54
2017-08-29T13:35:09.188Z,56.64
2017-08-29T13:36:18.492Z,56.64
2017-08-29T13:37:27.526Z,56.35
2017-08-29T13:38:37.190Z,55.96
2017-08-29T13:39:45.896Z,56.45
2017-08-29T13:40:54.564Z,56.35
2017-08-29T13:42:03.867Z,56.54
2017-08-29T13:43:13.535Z,56.15
2017-08-29T13:44:23.151Z,56.15
2017-08-29T13:45:32.775Z,56.05
2017-08-29T13:46:42.080Z,56.35
2017-08-29T13:47:51.081Z,56.15
2017-08-29T13:49:00.383Z,56.15
2017-08-29T13:50:09.683Z,56.25
2017-08-29T13:51:18.676Z,56.15
2017-08-29T13:52:27.340Z,56.05
2017-08-29T13:53:36.966Z,55.87
2017-08-29T13:54:45.974Z,56.05
2017-08-29T13:55:55.268Z,56.05
2017-08-29T13:57:04.307Z,55.67
2017-08-29T13:58:13.298Z,56.25
2017-08-29T13:59:22.356Z,55.87
2017-08-29T14:00:31.353Z,55.67
2017-08-29T14:01:40.405Z,55.87
2017-08-29T14:02:49.442Z,56.15
2017-08-29T14:03:59.047Z,55.87
2017-08-29T14:05:08.046Z,56.15
2017-08-29T14:06:17.026Z,56.05
2017-08-29T14:07:26.038Z,56.05
2017-08-29T14:08:35.102Z,56.05
2017-08-29T14:09:44.479Z,56.05
2017-08-29T14:10:53.256Z,56.05
2017-08-29T14:12:02.242Z,55.96
2017-08-29T14:13:10.917Z,56.05
2017-08-29T14:14:19.589Z,55.96
2017-08-29T14:15:28.587Z,55.96
2017-08-29T14:16:37.882Z,56.05
2017-08-29T14:17:46.852Z,55.87
2017-08-29T14:18:56.155Z,55.87
2017-08-29T14:20:05.152Z,55.87
2017-08-29T14:21:14.477Z,56.15
2017-08-29T14:22:23.803Z,56.15
2017-08-29T14:23:32.476Z,55.87
2017-08-29T14:24:41.168Z,56.25
2017-08-29T14:25:50.144Z,56.15
2017-08-29T14:26:59.138Z,56.15
2017-08-29T14:28:08.434Z,56.05
2017-08-29T14:29:17.729Z,55.87
2017-08-29T14:30:26.719Z,56.05
2017-08-29T14:31:35.718Z,56.09
2017-08-29T14:32:45.031Z,56.05
2017-08-29T14:33:54.342Z,55.96
2017-08-29T14:35:03.635Z,56.05
2017-08-29T14:36:12.626Z,55.99
2017-08-29T14:37:21.610Z,55.96
2017-08-29T14:38:30.276Z,55.96
2017-08-29T14:39:38.946Z,56.05
2017-08-29T14:40:48.549Z,56.05
2017-08-29T14:41:57.864Z,55.87
2017-08-29T14:43:06.876Z,55.96
2017-08-29T14:44:15.536Z,56.15
2017-08-29T14:45:24.535Z,55.89
2017-08-29T14:46:34.167Z,55.96
2017-08-29T14:47:42.838Z,55.96
2017-08-29T14:48:51.833Z,56.05
2017-08-29T14:50:01.177Z,55.96
2017-08-29T14:51:10.797Z,55.96
2017-08-29T14:52:19.482Z,56.05
2017-08-29T14:53:28.464Z,56.15